Flight Track Log - Related Links

Times and Time Zones

All times are in EDT time to prevent confusion due to time zone crossing. See the N1767P flight status page for this flight to view local times or setup timezone preferences in your user account.

Time Position Orientation Groundspeed Altitude Reporting Facility
EDT Latitude Longitude Course Direction KTS MPH feet Rate Location/Type
Tue 06:36:32 PM 39.6667 -75.6000 180° South 118 136 500  Level Philadelphia TRACON
Tue 06:37:08 PM 39.6500 -75.6000 180° South 105 121 1,000 875 Climbing Philadelphia TRACON
Tue 06:38:08 PM 39.6167 -75.6167 201° Southwest 131 151 1,900 905 Climbing Philadelphia TRACON
Tue 06:39:14 PM 39.6500 -75.6333 339° North 147 169 2,900 905 Climbing Philadelphia TRACON
Tue 06:40:14 PM 39.7000 -75.6500 346° North 141 162 3,800 550 Climbing Philadelphia TRACON
Tue 06:41:14 PM 39.7333 -75.6333 21° North 177 204 4,000 99 Climbing Philadelphia TRACON
Tue 06:42:15 PM 39.7833 -75.6333 360° North 174 200 4,000  Level Philadelphia TRACON
Tue 06:43:15 PM 39.8333 -75.6167 14° North 176 203 4,000  Level Philadelphia TRACON
Tue 06:44:15 PM 39.8833 -75.6167 360° North 174 200 4,000  Level Philadelphia TRACON
Tue 06:45:15 PM 39.9333 -75.6000 14° North 174 200 4,000  Level Philadelphia TRACON
Tue 06:46:15 PM 39.9833 -75.6000 360° North 175 201 4,000  Level Philadelphia TRACON
Tue 06:47:15 PM 40.0333 -75.5833 14° North 173 199 4,000  Level Philadelphia TRACON
Tue 06:47:59 PM 40.0592 -75.5822 North 173 199 4,000  Level New York Center
Tue 06:49:06 PM 40.1139 -75.5722 North 174 200 4,000  Level New York Center
Tue 06:50:13 PM 40.1661 -75.5650 North 168 193 4,000  Level New York Center
Tue 06:51:12 PM 40.2083 -75.5544 11° North 168 193 4,000  Level New York Center
Tue 06:52:07 PM 40.2544 -75.5494 North 170 196 4,000  Level New York Center
Tue 06:53:10 PM 40.2986 -75.5389 10° North 170 196 4,000  Level New York Center
Tue 06:54:10 PM 40.3467 -75.5314 North 168 193 4,000  Level New York Center
Tue 06:55:15 PM 40.4014 -75.5186 10° North 168 193 4,000  Level New York Center
Tue 06:56:22 PM 40.4519 -75.5086 North 170 196 4,000 234 Level New York Center
Tue 06:57:23 PM 40.4981 -75.5036 North 171 197 4,500 541 Climbing New York Center
Tue 06:58:13 PM 40.5336 -75.4950 10° North 162 186 5,000 244 Climbing New York Center
Tue 06:59:26 PM 40.5947 -75.4828 North 178 205 5,000  Level New York Center
Tue 07:00:24 PM 40.6450 -75.4728 North 177 204 5,000  Level New York Center
Tue 07:01:09 PM 40.6767 -75.4667 North 176 203 5,000  Level New York Center
Tue 07:02:13 PM 40.7292 -75.4511 13° North 177 204 5,000  Level New York Center
Tue 07:03:14 PM 40.7667 -75.4042 43° Northeast 179 206 5,000  Level New York Center
Tue 07:04:09 PM 40.7994 -75.3653 42° Northeast 179 206 5,000  Level New York Center
Tue 07:05:23 PM 40.8411 -75.3106 45° Northeast 178 205 5,000  Level New York Center
Tue 07:06:24 PM 40.8781 -75.2664 42° Northeast 179 206 5,000  Level New York Center
Tue 07:07:25 PM 40.9153 -75.2222 42° Northeast 180 207 5,000 -53 Level New York Center
Tue 07:08:17 PM 40.9458 -75.1831 44° Northeast 180 207 4,900  Descending New York Center
Tue 07:09:19 PM 40.9831 -75.1331 45° Northeast 181 208 5,000 49 Climbing New York Center
Tue 07:10:19 PM 41.0203 -75.0889 42° Northeast 180 207 5,000  Level New York Center
Tue 07:11:20 PM 41.0592 -75.0444 41° Northeast 180 207 5,000  Level New York Center
Tue 07:12:22 PM 41.0964 -74.9944 45° Northeast 181 208 5,000 34 Level New York Center
Tue 07:14:16 PM 41.1667 -74.9000 45° Northeast 181 208 5,100 36 Climbing New York TRACON
Tue 07:15:08 PM 41.2000 -74.8667 37° Northeast 183 211 5,100  Level New York TRACON
Tue 07:16:13 PM 41.2333 -74.8167 48° Northeast 184 212 5,100  Level New York TRACON
Tue 07:17:08 PM 41.2667 -74.7667 48° Northeast 184 212 5,100  Level New York TRACON
Tue 07:18:14 PM 41.3167 -74.7167 37° Northeast 182 209 5,100  Level New York TRACON
Tue 07:19:14 PM 41.3500 -74.6667 48° Northeast 179 206 5,100  Level New York TRACON
Tue 07:20:14 PM 41.3833 -74.6333 37° Northeast 178 205 5,100  Level New York TRACON
Tue 07:21:14 PM 41.4167 -74.5833 48° Northeast 178 205 5,100  Level New York TRACON
Tue 07:22:14 PM 41.4500 -74.5333 48° Northeast 180 207 5,100  Level New York TRACON
Tue 07:23:14 PM 41.4833 -74.4833 48° Northeast 181 208 5,100  Level New York TRACON
Tue 07:24:14 PM 41.5167 -74.4167 56° Northeast 180 207 5,100  Level New York TRACON
Tue 07:25:14 PM 41.5500 -74.3667 48° Northeast 181 208 5,100  Level New York TRACON
Tue 07:26:14 PM 41.5833 -74.3167 48° Northeast 180 207 5,100  Level New York TRACON
Tue 07:27:14 PM 41.6000 -74.2667 66° East 179 206 5,100 -65 Level New York TRACON
Tue 07:27:46 PM 41.6225 -74.2469 33° Northeast 180 207 5,000 -64 Descending Boston Center
Tue 07:28:48 PM 41.6561 -74.1908 51° Northeast 180 207 5,000  Level Boston Center
Tue 07:29:49 PM 41.6875 -74.1386 51° Northeast 180 207 5,000  Level Boston Center
Tue 07:30:50 PM 41.7186 -74.0867 51° Northeast 179 206 5,000  Level Boston Center
Tue 07:31:51 PM 41.7536 -74.0300 50° Northeast 180 207 5,000  Level Boston Center
Tue 07:32:55 PM 41.7844 -73.9786 51° Northeast 180 207 5,000  Level Boston Center
Tue 07:33:55 PM 41.8158 -73.9272 51° Northeast 180 207 5,000  Level Boston Center
Tue 07:34:56 PM 41.8472 -73.8744 51° Northeast 180 207 5,000  Level Boston Center
Tue 07:35:56 PM 41.8817 -73.8203 49° Northeast 179 206 5,000  Level Boston Center
Tue 07:37:00 PM 41.9292 -73.8194 North 172 198 5,000  Level Boston Center
Tue 07:37:59 PM 41.9767 -73.8169 North 172 198 5,000  Level Boston Center
Tue 07:38:47 PM 42.0142 -73.8161 North 170 196 5,000  Level Boston Center
Tue 07:39:02 PM 42.0275 -73.8167 358° North 171 197 5,000  Level Boston Center
Tue 07:39:49 PM 42.0614 -73.8175 359° North 168 193 5,000  Level Boston Center
Tue 07:40:04 PM 42.0725 -73.8144 12° North 169 194 5,000  Level Boston Center
Tue 07:41:04 PM 42.1197 -73.8142 360° North 168 193 5,000  Level Boston Center
Tue 07:41:45 PM 42.1522 -73.8133 North 170 196 5,000  Level Boston Center
Tue 07:42:06 PM 42.1706 -73.8131 North 169 194 5,000  Level Boston Center
Tue 07:42:46 PM 42.1994 -73.8147 358° North 169 194 5,000  Level Boston Center
Tue 07:43:07 PM 42.2181 -73.8125 North 169 194 5,000  Level Boston Center
Tue 07:43:40 PM 42.2408 -73.8111 North 168 193 5,000  Level Boston Center
Tue 07:44:08 PM 42.2644 -73.8125 358° North 169 194 5,000  Level Boston Center
Tue 07:44:41 PM 42.2878 -73.8125 360° North 167 192 5,000  Level Boston Center
Tue 07:45:11 PM 42.3144 -73.8111 North 168 193 5,000  Level Boston Center
Tue 07:45:41 PM 42.3353 -73.8111 360° North 168 193 5,000  Level Boston Center
Tue 07:46:12 PM 42.3611 -73.8097 North 168 193 5,000  Level Boston Center
Tue 07:46:42 PM 42.3808 -73.8089 North 168 193 5,000  Level Boston Center
Tue 07:47:13 PM 42.4075 -73.8097 359° North 168 193 5,000  Level Boston Center
Tue 07:47:43 PM 42.4278 -73.8103 359° North 169 194 5,000  Level Boston Center
Tue 07:48:13 PM 42.4589 -73.8086 North 168 193 5,000  Level Boston Center
Tue 07:48:44 PM 42.4797 -73.8075 North 172 198 5,000  Level Boston Center
Tue 07:49:17 PM 42.5072 -73.8078 360° North 170 196 5,000  Level Boston Center
Tue 07:49:50 PM 42.5314 -73.8075 360° North 174 200 5,000  Level Boston Center
Tue 07:50:17 PM 42.5553 -73.8067 North 171 197 5,000  Level Boston Center
Tue 07:50:50 PM 42.5789 -73.8061 North 173 199 5,000  Level Boston Center
Tue 07:51:18 PM 42.6028 -73.8061 360° North 171 197 5,000  Level Boston Center
Tue 07:51:45 PM 42.6239 -73.8067 359° North 171 197 5,000  Level Boston Center
Tue 07:52:21 PM 42.6539 -73.8050 North 171 197 5,000  Level Boston Center
Tue 07:52:45 PM 42.6714 -73.8053 359° North 171 197 5,000  Level Boston Center
Tue 07:53:22 PM 42.7017 -73.8039 North 171 197 5,000  Level Boston Center
Tue 07:53:52 PM 42.7256 -73.8031 North 174 200 5,000  Level Boston Center
Tue 07:54:22 PM 42.7533 -73.8014 North 174 200 5,000 -295 Level Boston Center
Tue 07:54:53 PM 42.7761 -73.8086 347° North 186 214 4,700 -689 Descending Boston Center
Tue 07:55:23 PM 42.8036 -73.8142 352° North 184 212 4,300 -689 Descending Boston Center
Tue 07:55:54 PM 42.8275 -73.8203 349° North 190 219 4,000 -295 Descending Boston Center
Tue 07:56:24 PM 42.8550 -73.8236 355° North 185 213 4,000  Level Boston Center
Tue 07:56:54 PM 42.8797 -73.8292 351° North 179 206 4,000  Level Boston Center
Tue 07:57:28 PM 42.9056 -73.8336 353° North 176 203 4,000 -358 Level Boston Center
Tue 07:58:01 PM 42.9317 -73.8381 353° North 172 198 3,600 -700 Descending Boston Center
Tue 07:58:28 PM 42.9547 -73.8436 350° North 176 203 3,300 -800 Descending Boston Center
Tue 07:59:01 PM 42.9811 -73.8489 352° North 180 207 2,800 -909 Descending Boston Center

Login

Don't have an account? Register now (free) for customized features, flight alerts, and more!